Time;durP1;ratioP1;P1;durP2;ratioP2;P2;SDS_P1;SDS_P2;PMS_P1;PMS_P2;Temp;Humidity;BMP_temperature;BMP_pressure;BME280_temperature;BME280_humidity;BME280_pressure;Samples;Min_cycle;Max_cycle;Signal;HPM_P1;HPM_P2
2022/10/10 00:00:27;;;;;;;29.50;17.80;;;;;;;3.32;73.11;101325.86;126983;1278;107554;-71
2022/10/10 00:03:53;;;;;;;30.70;17.00;;;;;;;3.30;73.08;101320.34;126880;1285;106910;-71
2022/10/10 00:06:58;;;;;;;30.90;17.30;;;;;;;3.29;72.98;101316.73;127026;1285;107292;-72
2022/10/10 00:10:05;;;;;;;30.50;19.00;;;;;;;3.27;72.99;101315.77;127097;1285;107349;-71
2022/10/10 00:13:10;;;;;;;36.20;18.70;;;;;;;3.23;72.74;101308.77;126937;1285;107587;-72
2022/10/10 00:16:17;;;;;;;40.30;20.00;;;;;;;3.20;72.88;101305.05;126920;1285;107539;-72
2022/10/10 00:19:22;;;;;;;31.20;17.90;;;;;;;3.19;72.94;101301.79;126972;1292;107509;-72
2022/10/10 00:22:27;;;;;;;35.00;18.60;;;;;;;3.14;72.88;101301.82;126719;1286;107278;-70
2022/10/10 00:25:33;;;;;;;34.20;19.30;;;;;;;3.08;73.14;101299.69;126779;1285;108181;-69
2022/10/10 00:28:39;;;;;;;33.70;17.60;;;;;;;3.06;72.98;101307.01;126763;1282;107656;-69
2022/10/10 00:31:44;;;;;;;25.60;14.10;;;;;;;3.08;72.99;101307.10;126702;1296;107686;-70
2022/10/10 00:34:50;;;;;;;33.30;16.90;;;;;;;3.09;73.01;101306.29;126715;1284;107973;-70
2022/10/10 00:37:55;;;;;;;37.60;17.40;;;;;;;3.13;73.03;101305.56;126770;1279;108424;-70
2022/10/10 00:41:01;;;;;;;33.60;17.20;;;;;;;3.16;72.93;101308.23;126733;1286;108261;-70
2022/10/10 00:44:09;;;;;;;31.10;17.20;;;;;;;3.16;72.72;101302.43;126883;1286;107682;-70
2022/10/10 00:47:15;;;;;;;29.20;16.10;;;;;;;3.14;72.97;101305.19;126734;1285;107076;-71
2022/10/10 00:50:21;;;;;;;23.90;14.60;;;;;;;3.12;72.96;101298.06;126821;1292;108488;-70
2022/10/10 00:53:32;;;;;;;26.90;15.50;;;;;;;3.08;72.81;101290.89;126717;1278;107230;-70
2022/10/10 00:56:44;;;;;;;26.40;15.50;;;;;;;3.03;72.94;101290.98;126847;1284;107956;-70
2022/10/10 00:59:50;;;;;;;26.10;14.80;;;;;;;2.96;72.93;101293.27;126672;1285;108336;-70
2022/10/10 01:02:55;;;;;;;24.10;14.30;;;;;;;2.92;72.87;101287.51;126841;1288;108022;-70
2022/10/10 01:06:01;;;;;;;26.60;15.70;;;;;;;2.90;73.05;101284.27;126896;1285;108071;-70
2022/10/10 01:09:06;;;;;;;25.60;15.10;;;;;;;2.91;73.16;101274.36;126765;1286;108383;-70
2022/10/10 01:12:24;;;;;;;27.30;16.30;;;;;;;2.92;72.97;101272.04;126735;1284;108584;-70
2022/10/10 01:15:39;;;;;;;27.30;15.20;;;;;;;2.89;73.22;101272.91;126759;1292;107137;-70
2022/10/10 01:18:51;;;;;;;28.10;14.80;;;;;;;2.83;73.02;101276.21;126787;1286;107123;-70
2022/10/10 01:22:11;;;;;;;26.40;14.80;;;;;;;2.77;72.96;101278.96;126815;1291;107946;-69
2022/10/10 01:25:27;;;;;;;24.00;13.30;;;;;;;2.72;72.98;101282.91;126745;1278;107351;-70
2022/10/10 01:28:43;;;;;;;26.30;14.00;;;;;;;2.69;73.04;101277.77;126718;1285;108017;-70
2022/10/10 01:31:54;;;;;;;21.10;12.60;;;;;;;2.71;72.95;101273.13;126816;1286;107301;-70
2022/10/10 01:35:14;;;;;;;23.70;13.40;;;;;;;2.75;73.03;101279.73;126777;1284;108243;-69
2022/10/10 01:38:31;;;;;;;26.90;13.70;;;;;;;2.78;73.03;101277.33;126757;1278;105891;-70
2022/10/10 01:41:43;;;;;;;22.30;12.70;;;;;;;2.81;72.90;101270.70;126787;1285;107398;-71
2022/10/10 01:44:52;;;;;;;23.60;13.20;;;;;;;2.80;72.97;101268.45;126858;1279;107983;-70
2022/10/10 01:48:01;;;;;;;25.90;13.50;;;;;;;2.79;72.88;101263.25;126831;1285;107888;-70
2022/10/10 01:51:24;;;;;;;23.80;14.30;;;;;;;2.79;73.02;101254.07;126882;1272;107871;-69
2022/10/10 01:54:41;;;;;;;23.30;12.90;;;;;;;2.78;72.79;101256.95;126950;1286;107386;-72
2022/10/10 01:57:58;;;;;;;23.90;13.90;;;;;;;2.71;72.89;101259.56;127025;1285;107533;-71
2022/10/10 02:01:13;;;;;;;27.50;14.20;;;;;;;2.68;72.84;101259.91;126968;1285;107300;-70
2022/10/10 02:04:29;;;;;;;23.60;12.90;;;;;;;2.62;72.75;101253.38;126646;1279;106782;-71
2022/10/10 02:07:41;;;;;;;22.60;13.00;;;;;;;2.55;72.85;101253.17;126952;1285;107318;-70
2022/10/10 02:10:52;;;;;;;19.30;13.00;;;;;;;2.52;72.91;101258.92;127172;1284;107174;-71
2022/10/10 02:14:01;;;;;;;21.90;12.60;;;;;;;2.49;72.90;101261.41;126966;1286;107420;-71
2022/10/10 02:17:10;;;;;;;23.20;13.10;;;;;;;2.45;72.83;101258.95;126891;1277;108102;-72
2022/10/10 02:20:20;;;;;;;23.10;13.20;;;;;;;2.39;73.01;101259.77;126782;1284;107504;-73
2022/10/10 02:23:27;;;;;;;25.80;13.00;;;;;;;2.36;73.07;101263.04;127273;1286;107666;-70
2022/10/10 02:26:33;;;;;;;25.80;14.10;;;;;;;2.35;73.23;101259.06;126843;1285;107343;-70
2022/10/10 02:29:42;;;;;;;21.50;12.00;;;;;;;2.38;73.26;101257.20;126855;1285;107386;-70
2022/10/10 02:32:51;;;;;;;19.70;11.40;;;;;;;2.38;73.32;101262.81;128186;1286;107667;-70
2022/10/10 02:35:57;;;;;;;22.40;11.60;;;;;;;2.38;73.34;101268.41;126889;1278;108193;-69
2022/10/10 02:39:05;;;;;;;19.60;12.20;;;;;;;2.42;73.19;101269.45;126951;1284;108057;-69
2022/10/10 02:42:13;;;;;;;21.50;12.50;;;;;;;2.44;73.17;101264.77;126874;1286;108074;-69
2022/10/10 02:45:20;;;;;;;22.20;12.30;;;;;;;2.47;73.12;101261.67;126963;1284;107328;-70
2022/10/10 02:48:26;;;;;;;22.60;12.50;;;;;;;2.50;73.12;101263.60;126682;1280;108159;-69
2022/10/10 02:51:31;;;;;;;25.30;12.90;;;;;;;2.50;73.17;101259.73;126753;1286;107646;-70
2022/10/10 02:54:36;;;;;;;23.30;13.00;;;;;;;2.48;73.28;101260.58;126800;1272;107534;-69
2022/10/10 02:57:42;;;;;;;22.60;13.20;;;;;;;2.45;73.43;101260.02;126876;1286;105715;-71
2022/10/10 03:00:47;;;;;;;18.80;12.00;;;;;;;2.41;73.39;101258.26;126884;1278;107232;-69
2022/10/10 03:03:53;;;;;;;21.90;13.10;;;;;;;2.39;73.18;101250.49;126881;1284;108105;-71
2022/10/10 03:06:58;;;;;;;23.50;13.60;;;;;;;2.36;73.42;101248.81;126917;1285;107539;-70
2022/10/10 03:10:04;;;;;;;24.10;12.90;;;;;;;2.32;73.51;101251.49;126796;1272;108124;-71
2022/10/10 03:13:10;;;;;;;21.40;12.30;;;;;;;2.29;73.61;101254.30;126954;1285;107347;-72
2022/10/10 03:16:15;;;;;;;23.60;11.90;;;;;;;2.27;73.46;101251.77;127126;1285;107483;-72
2022/10/10 03:19:21;;;;;;;20.00;12.50;;;;;;;2.23;73.45;101248.61;127127;1286;107330;-72
2022/10/10 03:22:26;;;;;;;23.20;12.70;;;;;;;2.23;73.60;101246.85;127020;1286;107555;-72
2022/10/10 03:25:33;;;;;;;16.40;10.40;;;;;;;2.26;73.83;101242.66;127190;1279;107583;-71
2022/10/10 03:28:39;;;;;;;17.60;11.00;;;;;;;2.28;73.73;101243.09;127054;1278;108306;-72
2022/10/10 03:31:45;;;;;;;18.80;11.50;;;;;;;2.31;73.75;101243.80;127265;1278;107702;-70
2022/10/10 03:34:50;;;;;;;17.00;10.90;;;;;;;2.35;73.60;101243.77;127044;1284;108007;-71
2022/10/10 03:37:56;;;;;;;20.70;12.20;;;;;;;2.38;73.76;101242.45;127149;1278;107438;-72
2022/10/10 03:41:01;;;;;;;18.80;11.50;;;;;;;2.40;73.60;101244.99;127113;1280;107510;-72
2022/10/10 03:44:06;;;;;;;17.40;10.90;;;;;;;2.38;73.78;101237.86;127161;1284;107294;-70
2022/10/10 03:47:12;;;;;;;18.40;11.50;;;;;;;2.37;73.80;101237.39;126917;1278;108199;-70
2022/10/10 03:50:18;;;;;;;18.00;10.90;;;;;;;2.33;73.72;101234.73;127227;1286;107580;-70
2022/10/10 03:53:23;;;;;;;18.20;11.30;;;;;;;2.31;73.68;101228.20;127058;1284;108120;-70
2022/10/10 03:56:29;;;;;;;17.20;10.70;;;;;;;2.30;73.68;101224.75;126921;1278;107494;-72
2022/10/10 03:59:35;;;;;;;17.50;11.10;;;;;;;2.29;73.84;101221.66;126818;1278;107471;-71
2022/10/10 04:02:40;;;;;;;20.00;11.40;;;;;;;2.24;73.97;101223.27;126988;1279;106892;-70
2022/10/10 04:05:45;;;;;;;22.70;13.90;;;;;;;2.22;73.82;101223.05;126803;1286;107455;-72
2022/10/10 04:08:51;;;;;;;82.30;43.00;;;;;;;2.19;73.92;101219.31;126976;1280;107497;-73
2022/10/10 04:11:56;;;;;;;27.90;17.10;;;;;;;2.21;74.00;101220.83;126907;1279;105546;-69
2022/10/10 04:15:02;;;;;;;20.40;13.00;;;;;;;2.25;74.10;101221.98;126808;1278;107943;-69
2022/10/10 04:18:07;;;;;;;27.60;17.50;;;;;;;2.29;73.93;101220.21;126914;1285;108239;-71
2022/10/10 04:21:12;;;;;;;28.10;17.80;;;;;;;2.35;74.15;101216.77;126967;1279;107315;-72
2022/10/10 04:24:18;;;;;;;26.10;15.90;;;;;;;2.36;74.28;101223.92;126933;1279;107243;-71
2022/10/10 04:27:23;;;;;;;21.40;13.60;;;;;;;2.34;74.13;101221.02;126882;1272;107499;-71
2022/10/10 04:30:32;;;;;;;23.20;16.30;;;;;;;2.32;74.65;101216.56;126908;1279;107345;-71
2022/10/10 04:33:37;;;;;;;53.40;37.90;;;;;;;2.37;75.72;101209.46;126822;1279;106999;-70
2022/10/10 04:36:43;;;;;;;38.70;24.70;;;;;;;2.43;75.52;101209.17;126801;1279;108068;-70
2022/10/10 04:39:48;;;;;;;43.90;27.80;;;;;;;2.44;75.98;101209.63;126741;1286;108123;-71
2022/10/10 04:42:54;;;;;;;132.60;83.20;;;;;;;2.47;75.80;101210.90;126944;1284;107241;-72
2022/10/10 04:45:59;;;;;;;52.30;32.20;;;;;;;2.53;76.32;101210.27;126833;1278;107518;-71
2022/10/10 04:49:04;;;;;;;60.60;37.20;;;;;;;2.63;76.57;101209.93;126869;1278;107593;-72
2022/10/10 04:52:10;;;;;;;1724.10;867.20;;;;;;;2.74;76.88;101210.91;127103;1279;107574;-72
2022/10/10 04:55:18;;;;;;;527.60;323.30;;;;;;;2.88;77.08;101205.30;127119;1295;107458;-71
2022/10/10 04:58:25;;;;;;;320.70;185.50;;;;;;;3.00;77.34;101202.04;128158;1278;107156;-72
2022/10/10 05:01:30;;;;;;;225.90;129.40;;;;;;;3.08;77.50;101199.33;128164;1278;107537;-72
2022/10/10 05:04:35;;;;;;;88.50;55.50;;;;;;;3.17;77.62;101192.38;127970;1279;107517;-72
2022/10/10 05:07:41;;;;;;;153.90;101.80;;;;;;;3.25;77.87;101193.17;127341;1281;107377;-71
2022/10/10 05:10:47;;;;;;;51.10;33.50;;;;;;;3.28;77.90;101186.27;127220;1285;107562;-72
2022/10/10 05:13:52;;;;;;;54.70;36.50;;;;;;;3.34;78.11;101182.11;127150;1278;107495;-71
2022/10/10 05:16:57;;;;;;;22.70;13.50;;;;;;;3.39;78.41;101181.98;126839;1278;108116;-73
2022/10/10 05:20:03;;;;;;;37.70;22.20;;;;;;;3.49;78.55;101182.86;127059;1278;105704;-71
2022/10/10 05:23:08;;;;;;;36.10;23.90;;;;;;;3.59;78.47;101181.09;127179;1272;107495;-70
2022/10/10 05:26:14;;;;;;;490.30;368.70;;;;;;;3.67;78.74;101180.63;126943;1279;107588;-69
2022/10/10 05:29:19;;;;;;;262.60;164.60;;;;;;;3.75;78.84;101187.59;126778;1272;110287;-72
2022/10/10 05:32:25;;;;;;;482.10;350.80;;;;;;;3.82;78.79;101193.18;126873;1279;107414;-71
2022/10/10 05:35:30;;;;;;;172.80;103.90;;;;;;;3.85;79.00;101186.83;126921;1286;107990;-69
2022/10/10 05:38:36;;;;;;;64.70;48.40;;;;;;;3.91;79.23;101184.21;126941;1278;108158;-72
2022/10/10 05:41:42;;;;;;;51.60;40.80;;;;;;;3.99;79.55;101182.70;126973;1278;107528;-72
2022/10/10 05:44:47;;;;;;;31.80;23.80;;;;;;;4.09;79.55;101182.97;126830;1282;107497;-70
2022/10/10 05:47:52;;;;;;;40.90;29.90;;;;;;;4.18;79.77;101183.17;126822;1278;108159;-70
2022/10/10 05:50:59;;;;;;;36.90;26.60;;;;;;;4.28;79.72;101182.23;126862;1286;106627;-69
2022/10/10 05:54:05;;;;;;;45.00;30.50;;;;;;;4.36;79.81;101179.86;126824;1279;107486;-69
2022/10/10 05:57:10;;;;;;;28.00;17.80;;;;;;;4.43;79.83;101179.95;126903;1278;106063;-72
2022/10/10 06:00:17;;;;;;;96.70;78.00;;;;;;;4.49;79.94;101178.88;126964;1279;107331;-70
2022/10/10 06:03:22;;;;;;;22.80;14.20;;;;;;;4.58;80.16;101178.55;126762;1278;107912;-70
2022/10/10 06:06:27;;;;;;;40.40;29.60;;;;;;;4.69;80.46;101182.27;127120;1279;108280;-71
2022/10/10 06:09:33;;;;;;;42.70;29.60;;;;;;;4.82;80.57;101176.60;126848;1286;107375;-71
2022/10/10 06:12:38;;;;;;;28.30;20.80;;;;;;;4.93;80.54;101179.29;126781;1279;108176;-71
2022/10/10 06:15:44;;;;;;;29.20;23.70;;;;;;;5.02;80.73;101179.22;127177;1278;107417;-70
2022/10/10 06:18:49;;;;;;;29.10;17.50;;;;;;;5.12;80.97;101177.23;126817;1279;108150;-70
2022/10/10 06:21:55;;;;;;;39.70;28.80;;;;;;;5.20;81.10;101174.60;126861;1278;108104;-70
2022/10/10 06:25:00;;;;;;;30.50;22.50;;;;;;;5.33;81.39;101171.89;126902;1278;107292;-69
2022/10/10 06:28:06;;;;;;;30.00;16.90;;;;;;;5.46;81.30;101171.73;126985;1286;108273;-70
2022/10/10 06:31:13;;;;;;;30.60;19.30;;;;;;;5.58;81.38;101166.53;126822;1279;108149;-70
2022/10/10 06:34:19;;;;;;;20.80;13.50;;;;;;;5.71;81.73;101166.61;126917;1270;107501;-72
2022/10/10 06:37:24;;;;;;;38.40;24.90;;;;;;;5.81;81.76;101168.80;126982;1279;107500;-72
2022/10/10 06:40:29;;;;;;;29.00;17.00;;;;;;;5.86;81.84;101166.85;127014;1272;107610;-70
2022/10/10 06:43:35;;;;;;;23.00;15.50;;;;;;;5.95;82.04;101174.23;126889;1278;107534;-71
2022/10/10 06:46:40;;;;;;;20.50;12.40;;;;;;;6.04;82.03;101171.00;126783;1284;108032;-72
2022/10/10 06:49:45;;;;;;;19.90;11.30;;;;;;;6.17;81.91;101162.42;126926;1278;107346;-71
2022/10/10 06:52:51;;;;;;;16.40;10.50;;;;;;;6.29;82.37;101155.09;126736;1279;108379;-71
2022/10/10 06:55:57;;;;;;;20.30;13.10;;;;;;;6.39;82.25;101155.64;126904;1272;107612;-71
2022/10/10 06:59:02;;;;;;;21.80;13.40;;;;;;;6.47;81.89;101158.58;126933;1285;107423;-70
2022/10/10 07:02:10;;;;;;;19.90;12.20;;;;;;;6.54;82.28;101156.52;126833;1278;108217;-73
2022/10/10 07:05:17;;;;;;;24.20;15.10;;;;;;;6.61;82.57;101156.91;126960;1286;107360;-73
2022/10/10 07:08:23;;;;;;;15.90;10.70;;;;;;;6.73;82.75;101161.11;126919;1278;107584;-72
2022/10/10 07:11:29;;;;;;;20.30;11.20;;;;;;;6.86;82.77;101157.34;126952;1278;107323;-71
2022/10/10 07:14:34;;;;;;;19.10;12.50;;;;;;;7.00;82.87;101151.11;126890;1279;106617;-71
2022/10/10 07:17:40;;;;;;;23.60;11.30;;;;;;;7.11;82.94;101154.22;126882;1272;107362;-73
2022/10/10 07:20:46;;;;;;;20.20;11.80;;;;;;;7.21;82.64;101154.34;126911;1286;107368;-71
2022/10/10 07:23:51;;;;;;;19.20;10.20;;;;;;;7.31;82.85;101148.17;126823;1271;106217;-72
2022/10/10 07:26:56;;;;;;;16.10;9.90;;;;;;;7.39;82.87;101145.80;126958;1278;107502;-71
2022/10/10 07:30:02;;;;;;;14.90;9.80;;;;;;;7.52;82.93;101138.54;127148;1279;107511;-72
2022/10/10 07:33:07;;;;;;;13.90;9.90;;;;;;;7.64;83.22;101143.35;126920;1286;107715;-71
2022/10/10 07:36:13;;;;;;;15.90;11.50;;;;;;;7.77;82.97;101143.75;126892;1279;108254;-72
2022/10/10 07:39:22;;;;;;;15.70;10.30;;;;;;;7.90;83.11;101139.83;126940;1278;107326;-70
2022/10/10 07:42:27;;;;;;;13.50;9.00;;;;;;;8.01;82.93;101141.95;126887;1278;107551;-72
2022/10/10 07:45:34;;;;;;;14.70;8.90;;;;;;;8.10;83.03;101140.05;126777;1279;107442;-69
2022/10/10 07:48:40;;;;;;;12.40;8.30;;;;;;;8.20;83.18;101133.48;126822;1279;107499;-69
2022/10/10 07:51:45;;;;;;;14.70;10.20;;;;;;;8.31;83.15;101130.19;126830;1279;108057;-70
2022/10/10 07:54:50;;;;;;;11.10;8.40;;;;;;;8.44;83.11;101127.41;126729;1272;107953;-69
2022/10/10 07:57:58;;;;;;;13.10;8.90;;;;;;;8.58;83.06;101122.46;126881;1286;108130;-70
2022/10/10 08:01:09;;;;;;;12.10;8.00;;;;;;;8.70;83.09;101123.48;127081;1279;107478;-70
2022/10/10 08:04:14;;;;;;;10.80;7.70;;;;;;;8.81;83.05;101121.59;127174;1278;106613;-71
2022/10/10 08:07:20;;;;;;;10.50;6.80;;;;;;;8.88;82.57;101119.30;127119;1281;107590;-72
2022/10/10 08:10:27;;;;;;;12.30;6.70;;;;;;;8.94;82.60;101110.92;127039;1272;107497;-71
2022/10/10 08:13:33;;;;;;;9.60;6.50;;;;;;;9.05;82.35;101107.09;127052;1279;107274;-71
2022/10/10 08:16:38;;;;;;;7.50;6.50;;;;;;;9.17;82.30;101105.58;126908;1279;107536;-69
2022/10/10 08:19:44;;;;;;;9.70;7.20;;;;;;;9.28;81.96;101096.59;126968;1278;106166;-71
2022/10/10 08:22:49;;;;;;;10.50;7.00;;;;;;;9.38;81.94;101100.30;126843;1286;108670;-70
2022/10/10 08:25:54;;;;;;;9.30;6.90;;;;;;;9.48;82.07;101093.29;126886;1285;108007;-71
2022/10/10 08:29:00;;;;;;;9.60;6.60;;;;;;;9.57;81.81;101090.65;126796;1278;108106;-70
2022/10/10 08:32:05;;;;;;;7.60;5.40;;;;;;;9.61;81.69;101089.39;126862;1278;106493;-70
2022/10/10 08:35:10;;;;;;;7.60;5.00;;;;;;;9.68;81.45;101087.59;126915;1286;108387;-70
2022/10/10 08:38:15;;;;;;;9.10;6.20;;;;;;;9.78;81.38;101088.04;126924;1278;108132;-71
2022/10/10 08:41:30;;;;;;;7.90;6.00;;;;;;;9.90;81.00;101084.73;126921;1278;107325;-71
2022/10/10 08:44:40;;;;;;;8.90;5.80;;;;;;;10.01;81.18;101078.28;127019;1272;106370;-71
2022/10/10 08:47:50;;;;;;;9.60;5.50;;;;;;;10.12;80.71;101079.27;126986;1278;107235;-71
2022/10/10 08:51:01;;;;;;;9.00;5.90;;;;;;;10.19;80.63;101071.98;126977;1278;106527;-71
2022/10/10 08:54:10;;;;;;;8.20;6.10;;;;;;;10.26;80.32;101066.40;127049;1285;106523;-71
2022/10/10 08:57:23;;;;;;;7.90;5.60;;;;;;;10.33;80.58;101064.09;126969;1278;107480;-71
2022/10/10 09:00:33;;;;;;;7.00;4.80;;;;;;;10.39;80.22;101060.84;126837;1278;107433;-71
2022/10/10 09:03:45;;;;;;;6.90;5.10;;;;;;;10.49;80.12;101055.77;126904;1279;106838;-72
2022/10/10 09:07:05;;;;;;;7.70;5.20;;;;;;;10.61;80.24;101052.57;126942;1288;108699;-71
2022/10/10 09:10:22;;;;;;;9.70;5.60;;;;;;;10.74;79.88;101046.95;126957;1278;108068;-71
2022/10/10 09:13:35;;;;;;;8.10;5.30;;;;;;;10.84;79.80;101044.68;126973;1278;107530;-71
2022/10/10 09:16:48;;;;;;;7.20;5.00;;;;;;;10.93;79.56;101043.14;126965;1270;107565;-71
2022/10/10 09:20:06;;;;;;;5.80;4.60;;;;;;;11.00;79.42;101038.85;126912;1286;108090;-71
2022/10/10 09:23:21;;;;;;;8.30;4.80;;;;;;;11.05;78.91;101037.27;126986;1278;107765;-71
2022/10/10 09:26:31;;;;;;;6.80;4.80;;;;;;;11.09;78.65;101036.04;126947;1278;107505;-71
2022/10/10 09:29:43;;;;;;;7.90;4.40;;;;;;;11.12;78.27;101034.02;126947;1279;107540;-71
2022/10/10 09:32:54;;;;;;;6.30;4.10;;;;;;;11.15;78.71;101030.14;126916;1278;107370;-71
2022/10/10 09:36:03;;;;;;;7.30;4.60;;;;;;;11.24;78.70;101028.48;126895;1279;107524;-71
2022/10/10 09:39:20;;;;;;;6.90;4.60;;;;;;;11.33;78.08;101019.27;126975;1279;107267;-70
2022/10/10 09:42:33;;;;;;;7.80;5.30;;;;;;;11.42;78.25;101022.42;127160;1272;107343;-71
2022/10/10 09:45:42;;;;;;;6.90;5.00;;;;;;;11.48;78.37;101017.35;126944;1279;107356;-71
2022/10/10 09:48:48;;;;;;;7.10;5.10;;;;;;;11.53;77.76;101012.48;127135;1272;107545;-72
2022/10/10 09:51:53;;;;;;;19.00;11.30;;;;;;;11.57;77.56;101013.00;127227;1278;107554;-71
2022/10/10 09:55:04;;;;;;;7.80;5.30;;;;;;;11.61;77.36;101013.55;126957;1278;107492;-71
2022/10/10 09:58:16;;;;;;;6.40;3.90;;;;;;;11.64;77.40;101008.66;126900;1272;106784;-71
2022/10/10 10:01:24;;;;;;;9.00;5.70;;;;;;;11.71;77.72;101009.45;127038;1278;107509;-71
2022/10/10 10:04:33;;;;;;;9.10;4.30;;;;;;;11.81;77.39;101012.45;126972;1278;107230;-71
2022/10/10 10:07:48;;;;;;;5.10;4.00;;;;;;;11.89;76.72;101015.94;126838;1282;108036;-71
2022/10/10 10:10:56;;;;;;;7.20;4.60;;;;;;;11.99;76.58;101012.00;126976;1278;106521;-71
2022/10/10 10:14:02;;;;;;;9.00;4.50;;;;;;;12.08;76.53;101010.27;127002;1279;107546;-71
2022/10/10 10:17:10;;;;;;;7.40;5.40;;;;;;;12.14;76.28;101007.35;127037;1278;107445;-71
2022/10/10 10:20:35;;;;;;;8.70;5.20;;;;;;;12.21;76.45;101005.20;127001;1285;107523;-71
2022/10/10 10:23:49;;;;;;;5.60;4.40;;;;;;;12.25;76.29;101000.53;126968;1279;107267;-70
2022/10/10 10:26:55;;;;;;;9.50;5.20;;;;;;;12.29;76.30;100996.21;126910;1278;106224;-71
2022/10/10 10:30:00;;;;;;;5.70;4.30;;;;;;;12.31;76.06;100990.77;126951;1278;108700;-71
2022/10/10 10:33:14;;;;;;;5.20;3.80;;;;;;;12.35;75.75;100985.29;126868;1271;107611;-71
2022/10/10 10:36:31;;;;;;;6.80;5.10;;;;;;;12.38;75.89;100974.98;126885;1278;107350;-72
2022/10/10 10:39:50;;;;;;;6.70;5.10;;;;;;;12.41;75.81;100963.32;126880;1271;159403;-70
2022/10/10 10:43:12;;;;;;;5.10;4.30;;;;;;;12.44;75.05;100964.40;126914;1278;107396;-70
2022/10/10 10:46:38;;;;;;;5.30;3.70;;;;;;;12.46;75.07;100963.15;126883;1270;107342;-71
2022/10/10 10:49:53;;;;;;;5.70;3.70;;;;;;;12.51;75.03;100957.42;126737;1272;108155;-72
2022/10/10 10:53:04;;;;;;;4.40;3.30;;;;;;;12.60;74.93;100949.50;127082;1278;108105;-71
2022/10/10 10:56:23;;;;;;;5.20;3.70;;;;;;;12.67;74.78;100950.18;127145;1272;107403;-71
2022/10/10 10:59:41;;;;;;;6.00;3.60;;;;;;;12.76;74.71;100941.89;126919;1278;107497;-71
2022/10/10 11:03:00;;;;;;;4.30;3.70;;;;;;;12.81;74.52;100931.90;126866;1278;106627;-71
2022/10/10 11:06:20;;;;;;;4.50;3.80;;;;;;;12.85;74.45;100924.20;126970;1279;107296;-71
2022/10/10 11:09:32;;;;;;;4.20;3.40;;;;;;;12.88;74.34;100922.69;126862;1276;107958;-71
2022/10/10 11:12:50;;;;;;;4.40;3.30;;;;;;;12.90;74.07;100922.38;126791;1278;108154;-71
2022/10/10 11:16:00;;;;;;;4.00;3.20;;;;;;;12.95;73.65;100916.98;127026;1279;108017;-71
2022/10/10 11:19:18;;;;;;;3.60;3.20;;;;;;;13.00;73.62;100913.95;126836;1278;108056;-71
2022/10/10 11:22:29;;;;;;;5.80;3.40;;;;;;;13.04;73.38;100913.60;127122;1272;107479;-71
2022/10/10 11:25:41;;;;;;;3.30;3.00;;;;;;;13.06;72.88;100909.63;126909;1279;107395;-71
2022/10/10 11:28:52;;;;;;;5.90;3.90;;;;;;;13.11;73.08;100907.55;126869;1283;108038;-71
2022/10/10 11:32:23;;;;;;;3.90;3.50;;;;;;;13.13;72.96;100905.69;126850;1278;109061;-72
2022/10/10 11:35:30;;;;;;;;;;;;;;;13.15;72.63;100902.06;126874;1279;107534;-70
2022/10/10 11:38:43;;;;;;;5.30;3.10;;;;;;;13.17;72.18;100898.33;126738;1286;107516;-72
2022/10/10 11:41:55;;;;;;;4.20;3.00;;;;;;;13.22;72.20;100893.23;126937;1279;107351;-70
2022/10/10 11:45:02;;;;;;;;;;;;;;;13.27;72.38;100889.30;126908;1278;107489;-70
2022/10/10 11:48:21;;;;;;;4.50;2.90;;;;;;;13.28;72.09;100881.27;126772;1295;107356;-71
2022/10/10 11:51:38;;;;;;;6.60;3.20;;;;;;;13.30;71.60;100871.82;126999;1278;107351;-71
2022/10/10 11:54:51;;;;;;;3.70;2.90;;;;;;;13.36;71.81;100865.77;126989;1278;107342;-70
2022/10/10 11:58:18;;;;;;;4.00;3.00;;;;;;;13.38;71.58;100860.20;126942;1286;107368;-71
2022/10/10 12:01:27;;;;;;;4.00;3.00;;;;;;;13.39;70.87;100857.68;126866;1279;107536;-71
2022/10/10 12:04:37;;;;;;;3.70;3.00;;;;;;;13.42;70.98;100846.02;126883;1278;107507;-71
2022/10/10 12:07:49;;;;;;;4.20;2.60;;;;;;;13.46;70.66;100842.23;126995;1279;106689;-71
2022/10/10 12:11:00;;;;;;;4.20;3.00;;;;;;;13.48;70.45;100841.80;126915;1271;107469;-71
2022/10/10 12:14:13;;;;;;;5.00;3.50;;;;;;;13.51;70.27;100835.65;126952;1286;107416;-71
2022/10/10 12:17:24;;;;;;;3.30;2.70;;;;;;;13.54;70.14;100825.96;126992;1286;106409;-71
2022/10/10 12:20:35;;;;;;;4.20;2.90;;;;;;;13.56;70.00;100817.90;126984;1275;107539;-71
2022/10/10 12:23:42;;;;;;;3.70;2.80;;;;;;;13.60;70.07;100814.66;127297;1279;107752;-71
2022/10/10 12:27:25;;;;;;;4.20;2.70;;;;;;;13.65;69.13;100812.14;126981;1278;107506;-71
2022/10/10 12:30:31;;;;;;;3.90;2.40;;;;;;;13.67;69.34;100803.38;126821;1278;107683;-71
2022/10/10 12:34:09;;;;;;;3.70;2.90;;;;;;;13.68;69.61;100797.38;126792;1279;108462;-70
2022/10/10 12:37:25;;;;;;;2.90;2.40;;;;;;;13.70;68.85;100797.48;126999;1279;107385;-71
2022/10/10 12:40:31;;;;;;;5.10;2.60;;;;;;;13.73;68.64;100791.64;127046;1279;107558;-71
2022/10/10 12:43:43;;;;;;;3.30;2.40;;;;;;;13.76;69.13;100788.53;126866;1278;107560;-71
2022/10/10 12:47:09;;;;;;;5.20;2.50;;;;;;;13.79;67.91;100782.53;126998;1278;107392;-71
2022/10/10 12:50:24;;;;;;;3.40;2.50;;;;;;;13.79;67.76;100777.80;126976;1286;107522;-71
2022/10/10 12:53:34;;;;;;;3.40;2.50;;;;;;;13.83;67.89;100778.16;126805;1279;107387;-71
2022/10/10 12:56:43;;;;;;;3.10;2.30;;;;;;;13.83;67.74;100769.95;126829;1278;107307;-71
2022/10/10 12:59:48;;;;;;;3.20;2.50;;;;;;;13.81;66.89;100768.09;127058;1278;107338;-71
2022/10/10 13:02:57;;;;;;;5.40;2.60;;;;;;;13.84;67.01;100762.27;127000;1286;107377;-71
2022/10/10 13:06:06;;;;;;;3.30;2.40;;;;;;;13.85;67.36;100761.50;127001;1279;107199;-71
2022/10/10 13:09:16;;;;;;;3.50;2.70;;;;;;;13.85;67.27;100760.04;127056;1278;107471;-71
2022/10/10 13:12:27;;;;;;;3.20;2.50;;;;;;;13.85;67.07;100751.98;127003;1278;107370;-71
2022/10/10 13:15:34;;;;;;;3.70;2.60;;;;;;;13.88;66.77;100746.13;126902;1285;107375;-71
2022/10/10 13:18:43;;;;;;;4.30;2.80;;;;;;;13.89;66.88;100738.67;126965;1279;107240;-70
2022/10/10 13:21:50;;;;;;;4.80;3.10;;;;;;;13.88;66.88;100737.00;126855;1285;107260;-71
2022/10/10 13:24:55;;;;;;;4.50;3.40;;;;;;;13.87;66.88;100731.03;126941;1296;107516;-71
2022/10/10 13:28:01;;;;;;;7.50;3.90;;;;;;;13.85;66.62;100725.13;126939;1279;107528;-71
2022/10/10 13:31:12;;;;;;;6.30;3.70;;;;;;;13.85;66.60;100724.25;126928;1278;108144;-71
2022/10/10 13:34:22;;;;;;;5.40;3.20;;;;;;;13.85;66.51;100723.41;126846;1278;107813;-71
2022/10/10 13:37:28;;;;;;;5.00;3.30;;;;;;;13.83;66.26;100723.19;126965;1279;107548;-71
2022/10/10 13:40:34;;;;;;;5.40;3.60;;;;;;;13.81;65.82;100721.42;126882;1279;106730;-70
2022/10/10 13:43:41;;;;;;;4.00;3.00;;;;;;;13.80;66.05;100716.73;126967;1279;107967;-71
2022/10/10 13:46:46;;;;;;;4.10;3.20;;;;;;;13.79;66.10;100716.02;127026;1279;106594;-71
2022/10/10 13:49:57;;;;;;;4.50;3.60;;;;;;;13.77;66.14;100710.58;126976;1272;108192;-70
2022/10/10 13:53:24;;;;;;;4.40;2.90;;;;;;;13.75;66.17;100705.61;126933;1279;107373;-70
2022/10/10 13:56:37;;;;;;;4.10;2.80;;;;;;;13.73;65.73;100702.02;126854;1278;107301;-70
2022/10/10 13:59:45;;;;;;;4.00;3.10;;;;;;;13.69;65.10;100701.73;126888;1279;108021;-70
2022/10/10 14:02:51;;;;;;;3.20;2.50;;;;;;;13.66;64.72;100703.14;126871;1279;107977;-71
2022/10/10 14:05:57;;;;;;;4.80;3.20;;;;;;;13.61;65.05;100696.75;126832;1278;107326;-70
2022/10/10 14:09:13;;;;;;;3.00;2.50;;;;;;;13.53;65.18;100697.23;126918;1285;106445;-70
2022/10/10 14:12:24;;;;;;;4.60;2.90;;;;;;;13.42;65.33;100697.98;126981;1286;107845;-70